AAY1325 KFLL-KDAY
Flight info
| Callsign | AAY1325 |
|---|---|
| Flight time | N/A |
| Altitude | 31000 |
| Route | AGERS1 DUCEN Q87 VIYAP SPA/N0446F320 FLM/N0444F330 |
| Aircraft | MD82/M-SDFGIRWY/S |
Departure
| Time | N/A |
|---|---|
| Airport | Fort Lauderdale Hollywood International Airport (KFLL) |
Arrival
| Time | 2026-04-23 03:04 |
|---|---|
| Airport | James M. Cox Dayton International Airport (KDAY) |
| Time | Latitude | Longitude | Altitude | Speed | Heading |
|---|---|---|---|---|---|
| 2026-04-23 01:58 | 33.83079 | -81.76609 | 30993 ft | 423 kts | 354° |
| 2026-04-23 01:59 | 33.88923 | -81.77383 | 30982 ft | 423 kts | 354° |
| 2026-04-23 01:59 | 33.94769 | -81.78154 | 30971 ft | 422 kts | 354° |
| 2026-04-23 02:00 | 34.00611 | -81.78927 | 30968 ft | 422 kts | 354° |
| 2026-04-23 02:00 | 34.06453 | -81.79701 | 30976 ft | 422 kts | 354° |
| 2026-04-23 02:01 | 34.12298 | -81.80473 | 30984 ft | 423 kts | 354° |
| 2026-04-23 02:01 | 34.18143 | -81.81251 | 30991 ft | 423 kts | 354° |
| 2026-04-23 02:02 | 34.23992 | -81.82033 | 30996 ft | 423 kts | 354° |
| 2026-04-23 02:02 | 34.29834 | -81.82811 | 30999 ft | 422 kts | 354° |
| 2026-04-23 02:03 | 34.35676 | -81.83588 | 30996 ft | 422 kts | 354° |
| 2026-04-23 02:03 | 34.41517 | -81.84371 | 30980 ft | 422 kts | 354° |
| 2026-04-23 02:04 | 34.47357 | -81.85150 | 30986 ft | 422 kts | 354° |
| 2026-04-23 02:04 | 34.53205 | -81.85932 | 30986 ft | 423 kts | 354° |
| 2026-04-23 02:05 | 34.59050 | -81.86716 | 30982 ft | 422 kts | 353° |
| 2026-04-23 02:05 | 34.64886 | -81.87504 | 30974 ft | 422 kts | 353° |
| 2026-04-23 02:06 | 34.70723 | -81.88289 | 30964 ft | 422 kts | 353° |
| 2026-04-23 02:06 | 34.76560 | -81.89075 | 30969 ft | 422 kts | 353° |
| 2026-04-23 02:07 | 34.82355 | -81.89856 | 30974 ft | 422 kts | 353° |
| 2026-04-23 02:07 | 34.88192 | -81.90644 | 30978 ft | 422 kts | 353° |
| 2026-04-23 02:08 | 34.94026 | -81.91433 | 30977 ft | 422 kts | 353° |
| 2026-04-23 02:08 | 34.99856 | -81.92223 | 30978 ft | 422 kts | 353° |
| 2026-04-23 02:09 | 35.05521 | -81.93835 | 30975 ft | 421 kts | 335° |
| 2026-04-23 02:09 | 35.10712 | -81.97164 | 30969 ft | 422 kts | 332° |
| 2026-04-23 02:10 | 35.15880 | -82.00571 | 30951 ft | 422 kts | 333° |
| 2026-04-23 02:10 | 35.21078 | -82.03912 | 30957 ft | 422 kts | 333° |
| 2026-04-23 02:11 | 35.26302 | -82.07190 | 30968 ft | 422 kts | 333° |
| 2026-04-23 02:11 | 35.31529 | -82.10457 | 30979 ft | 422 kts | 333° |
| 2026-04-23 02:12 | 35.36757 | -82.13741 | 30977 ft | 422 kts | 333° |
| 2026-04-23 02:12 | 35.41988 | -82.17041 | 30978 ft | 423 kts | 333° |
| 2026-04-23 02:13 | 35.47216 | -82.20355 | 30971 ft | 423 kts | 333° |
| 2026-04-23 02:13 | 35.52449 | -82.23678 | 30966 ft | 423 kts | 333° |
| 2026-04-23 02:14 | 35.57684 | -82.26997 | 30982 ft | 424 kts | 333° |
| 2026-04-23 02:14 | 35.62922 | -82.30322 | 30984 ft | 424 kts | 333° |
| 2026-04-23 02:15 | 35.70783 | -82.35321 | 30980 ft | 424 kts | 333° |
| 2026-04-23 02:16 | 35.75977 | -82.38633 | 30978 ft | 423 kts | 333° |
| 2026-04-23 02:16 | 35.81204 | -82.41975 | 30974 ft | 423 kts | 332° |
| 2026-04-23 02:17 | 35.86426 | -82.45327 | 30975 ft | 423 kts | 332° |
| 2026-04-23 02:17 | 35.91650 | -82.48675 | 30971 ft | 423 kts | 332° |
| 2026-04-23 02:18 | 35.96878 | -82.52027 | 30973 ft | 423 kts | 332° |
| 2026-04-23 02:18 | 36.02104 | -82.55382 | 30979 ft | 423 kts | 332° |
| 2026-04-23 02:19 | 36.07330 | -82.58743 | 30980 ft | 423 kts | 332° |
| 2026-04-23 02:19 | 36.12548 | -82.62104 | 30984 ft | 423 kts | 332° |
| 2026-04-23 02:20 | 36.17768 | -82.65475 | 30996 ft | 423 kts | 332° |
| 2026-04-23 02:20 | 36.22984 | -82.68856 | 31005 ft | 423 kts | 332° |
| 2026-04-23 02:21 | 36.28198 | -82.72234 | 31000 ft | 423 kts | 332° |
| 2026-04-23 02:21 | 36.33413 | -82.75613 | 30988 ft | 423 kts | 332° |
| 2026-04-23 02:22 | 36.38625 | -82.78993 | 30980 ft | 423 kts | 332° |
| 2026-04-23 02:22 | 36.43836 | -82.82378 | 30967 ft | 422 kts | 332° |
| 2026-04-23 02:23 | 36.49038 | -82.85765 | 30955 ft | 422 kts | 332° |
| 2026-04-23 02:23 | 36.54242 | -82.89157 | 30945 ft | 422 kts | 332° |
| 2026-04-23 02:24 | 36.59436 | -82.92561 | 30935 ft | 422 kts | 332° |
| 2026-04-23 02:24 | 36.64629 | -82.95960 | 30942 ft | 422 kts | 332° |
| 2026-04-23 02:25 | 36.69793 | -82.99341 | 30939 ft | 422 kts | 332° |
| 2026-04-23 02:25 | 36.74995 | -83.02751 | 30948 ft | 422 kts | 332° |
| 2026-04-23 02:26 | 36.80191 | -83.06161 | 30940 ft | 422 kts | 332° |
| 2026-04-23 02:26 | 36.85379 | -83.09570 | 30942 ft | 421 kts | 332° |
| 2026-04-23 02:27 | 36.90564 | -83.12986 | 30948 ft | 421 kts | 332° |
| 2026-04-23 02:27 | 36.95737 | -83.16413 | 30938 ft | 421 kts | 332° |
| 2026-04-23 02:28 | 37.00916 | -83.19838 | 30947 ft | 421 kts | 332° |
| 2026-04-23 02:28 | 37.06100 | -83.23268 | 30954 ft | 421 kts | 332° |
| 2026-04-23 02:29 | 37.11280 | -83.26697 | 30963 ft | 421 kts | 332° |
| 2026-04-23 02:29 | 37.16454 | -83.30131 | 30964 ft | 420 kts | 332° |
| 2026-04-23 02:30 | 37.21620 | -83.33566 | 30976 ft | 420 kts | 332° |
| 2026-04-23 02:30 | 37.26786 | -83.37003 | 30975 ft | 420 kts | 332° |
| 2026-04-23 02:31 | 37.31946 | -83.40455 | 30988 ft | 420 kts | 332° |
| 2026-04-23 02:31 | 37.37109 | -83.43910 | 30984 ft | 420 kts | 332° |
| 2026-04-23 02:32 | 37.42274 | -83.47363 | 30976 ft | 420 kts | 332° |
| 2026-04-23 02:32 | 37.47401 | -83.50796 | 30963 ft | 420 kts | 332° |
| 2026-04-23 02:33 | 37.52555 | -83.54251 | 30969 ft | 420 kts | 332° |
| 2026-04-23 02:33 | 37.57743 | -83.57735 | 30965 ft | 419 kts | 332° |
| 2026-04-23 02:34 | 37.62854 | -83.61174 | 30948 ft | 419 kts | 331° |
| 2026-04-23 02:34 | 37.67997 | -83.64650 | 30943 ft | 419 kts | 331° |
| 2026-04-23 02:35 | 37.73142 | -83.68131 | 30935 ft | 420 kts | 331° |
| 2026-04-23 02:35 | 37.78302 | -83.71622 | 30930 ft | 422 kts | 331° |
| 2026-04-23 02:36 | 37.83479 | -83.75126 | 30940 ft | 422 kts | 332° |
| 2026-04-23 02:36 | 37.88647 | -83.78628 | 30962 ft | 421 kts | 331° |
| 2026-04-23 02:37 | 37.93796 | -83.82123 | 30966 ft | 419 kts | 332° |
| 2026-04-23 02:37 | 37.98064 | -83.85026 | 30976 ft | 419 kts | 331° |
| 2026-04-23 02:38 | 38.03198 | -83.88530 | 30989 ft | 419 kts | 331° |
| 2026-04-23 02:38 | 38.08334 | -83.92046 | 30990 ft | 420 kts | 331° |
| 2026-04-23 02:39 | 38.13484 | -83.95570 | 30992 ft | 421 kts | 331° |
| 2026-04-23 02:39 | 38.18644 | -83.99099 | 30975 ft | 421 kts | 331° |
| 2026-04-23 02:40 | 38.23799 | -84.02631 | 30961 ft | 420 kts | 331° |
| 2026-04-23 02:40 | 38.28937 | -84.06157 | 30946 ft | 419 kts | 331° |
| 2026-04-23 02:41 | 38.34058 | -84.09679 | 30926 ft | 418 kts | 331° |
| 2026-04-23 02:41 | 38.39184 | -84.13200 | 30923 ft | 419 kts | 332° |
| 2026-04-23 02:41 | 38.41755 | -84.14961 | 30770 ft | 423 kts | 332° |
| 2026-04-23 02:42 | 38.44371 | -84.16757 | 30190 ft | 430 kts | 331° |
| 2026-04-23 02:42 | 38.47022 | -84.18583 | 28871 ft | 437 kts | 331° |
| 2026-04-23 02:42 | 38.49716 | -84.20449 | 27505 ft | 445 kts | 332° |
| 2026-04-23 02:42 | 38.52455 | -84.22349 | 26192 ft | 451 kts | 332° |
| 2026-04-23 02:43 | 38.55230 | -84.24273 | 24991 ft | 456 kts | 332° |
| 2026-04-23 02:43 | 38.57985 | -84.26180 | 24469 ft | 444 kts | 332° |
| 2026-04-23 02:43 | 38.60655 | -84.27998 | 24330 ft | 424 kts | 333° |
| 2026-04-23 02:43 | 38.63220 | -84.29696 | 24097 ft | 409 kts | 334° |
| 2026-04-23 02:44 | 38.65744 | -84.31311 | 23460 ft | 405 kts | 335° |
| 2026-04-23 02:44 | 38.68293 | -84.32889 | 22336 ft | 410 kts | 335° |
| 2026-04-23 02:44 | 38.70896 | -84.34474 | 21195 ft | 417 kts | 335° |
| 2026-04-23 02:44 | 38.73527 | -84.36032 | 20467 ft | 414 kts | 339° |
| 2026-04-23 02:45 | 38.76259 | -84.37067 | 19886 ft | 407 kts | 349° |
| 2026-04-23 02:45 | 38.79059 | -84.37397 | 19326 ft | 401 kts | 359° |
| 2026-04-23 02:45 | 38.81833 | -84.37292 | 18772 ft | 396 kts | 2° |
| 2026-04-23 02:45 | 38.84569 | -84.37082 | 18212 ft | 392 kts | 3° |
| 2026-04-23 02:46 | 38.87279 | -84.36836 | 17579 ft | 389 kts | 3° |
| 2026-04-23 02:46 | 38.89963 | -84.36569 | 16959 ft | 385 kts | 4° |
| 2026-04-23 02:46 | 38.92628 | -84.36290 | 16356 ft | 382 kts | 4° |
| 2026-04-23 02:46 | 38.95233 | -84.36006 | 15772 ft | 380 kts | 4° |
| 2026-04-23 02:47 | 38.97859 | -84.35721 | 15170 ft | 378 kts | 4° |
| 2026-04-23 02:47 | 39.00472 | -84.35411 | 14571 ft | 376 kts | 5° |
| 2026-04-23 02:47 | 39.03071 | -84.35044 | 13988 ft | 375 kts | 5° |
| 2026-04-23 02:47 | 39.05658 | -84.34653 | 13353 ft | 373 kts | 6° |
| 2026-04-23 02:48 | 39.08233 | -84.34257 | 12708 ft | 372 kts | 6° |
| 2026-04-23 02:48 | 39.10797 | -84.33851 | 12086 ft | 370 kts | 6° |
| 2026-04-23 02:48 | 39.13347 | -84.33440 | 11514 ft | 367 kts | 6° |
| 2026-04-23 02:48 | 39.15850 | -84.33029 | 11230 ft | 357 kts | 6° |
| 2026-04-23 02:49 | 39.18257 | -84.32628 | 11092 ft | 342 kts | 6° |
| 2026-04-23 02:49 | 39.20563 | -84.32232 | 11037 ft | 328 kts | 6° |
| 2026-04-23 02:49 | 39.22799 | -84.31849 | 11000 ft | 324 kts | 6° |
| 2026-04-23 02:49 | 39.25038 | -84.31468 | 10990 ft | 324 kts | 6° |
| 2026-04-23 02:50 | 39.27243 | -84.31094 | 10984 ft | 313 kts | 6° |
| 2026-04-23 02:50 | 39.29347 | -84.30724 | 10972 ft | 298 kts | 6° |
| 2026-04-23 02:50 | 39.31363 | -84.30362 | 10964 ft | 288 kts | 6° |
| 2026-04-23 02:50 | 39.33355 | -84.30005 | 10974 ft | 290 kts | 6° |
| 2026-04-23 02:51 | 39.35340 | -84.29648 | 10996 ft | 288 kts | 6° |
| 2026-04-23 02:51 | 39.37338 | -84.29292 | 11001 ft | 291 kts | 6° |
| 2026-04-23 02:51 | 39.39340 | -84.28929 | 11008 ft | 291 kts | 6° |
| 2026-04-23 02:51 | 39.41342 | -84.28568 | 11005 ft | 291 kts | 6° |
| 2026-04-23 02:52 | 39.43351 | -84.28207 | 11013 ft | 292 kts | 6° |
| 2026-04-23 02:52 | 39.45359 | -84.27823 | 11020 ft | 291 kts | 4° |
| 2026-04-23 02:52 | 39.47367 | -84.27818 | 11013 ft | 288 kts | 350° |
| 2026-04-23 02:52 | 39.49332 | -84.28300 | 10972 ft | 289 kts | 345° |
| 2026-04-23 02:53 | 39.51308 | -84.28898 | 10453 ft | 293 kts | 345° |
| 2026-04-23 02:53 | 39.53281 | -84.29519 | 9846 ft | 290 kts | 344° |
| 2026-04-23 02:53 | 39.55235 | -84.30146 | 9189 ft | 288 kts | 344° |
| 2026-04-23 02:53 | 39.57174 | -84.30775 | 8574 ft | 286 kts | 343° |
| 2026-04-23 02:54 | 39.59101 | -84.31408 | 7959 ft | 285 kts | 343° |
| 2026-04-23 02:54 | 39.61020 | -84.32030 | 7357 ft | 284 kts | 343° |
| 2026-04-23 02:54 | 39.62935 | -84.32646 | 6771 ft | 283 kts | 343° |
| 2026-04-23 02:54 | 39.64836 | -84.33300 | 6159 ft | 281 kts | 339° |
| 2026-04-23 02:55 | 39.66659 | -84.34196 | 5540 ft | 279 kts | 335° |
| 2026-04-23 02:55 | 39.68449 | -84.35164 | 4928 ft | 278 kts | 334° |
| 2026-04-23 02:55 | 39.70230 | -84.36148 | 4316 ft | 278 kts | 334° |
| 2026-04-23 02:55 | 39.72003 | -84.37139 | 3718 ft | 277 kts | 334° |
| 2026-04-23 02:56 | 39.73759 | -84.38128 | 3358 ft | 272 kts | 334° |
| 2026-04-23 02:56 | 39.75422 | -84.39062 | 3234 ft | 253 kts | 334° |
| 2026-04-23 02:56 | 39.76994 | -84.39939 | 3116 ft | 238 kts | 334° |
| 2026-04-23 02:56 | 39.78480 | -84.40775 | 3057 ft | 229 kts | 334° |
| 2026-04-23 02:57 | 39.79950 | -84.41590 | 2930 ft | 232 kts | 334° |
| 2026-04-23 02:57 | 39.81428 | -84.42488 | 2712 ft | 235 kts | 324° |
| 2026-04-23 02:57 | 39.82585 | -84.43900 | 2756 ft | 224 kts | 301° |
| 2026-04-23 02:57 | 39.83154 | -84.45758 | 2792 ft | 219 kts | 277° |
| 2026-04-23 02:58 | 39.83082 | -84.47711 | 2949 ft | 212 kts | 254° |
| 2026-04-23 02:58 | 39.82378 | -84.49317 | 2740 ft | 211 kts | 225° |
| 2026-04-23 02:58 | 39.81064 | -84.50293 | 2640 ft | 232 kts | 197° |
| 2026-04-23 02:58 | 39.79477 | -84.50379 | 2846 ft | 224 kts | 169° |
| 2026-04-23 02:59 | 39.78119 | -84.49487 | 2835 ft | 219 kts | 139° |
| 2026-04-23 02:59 | 39.77333 | -84.47866 | 2877 ft | 211 kts | 105° |
| 2026-04-23 02:59 | 39.77403 | -84.46004 | 2707 ft | 211 kts | 64° |
| 2026-04-23 02:59 | 39.78284 | -84.44525 | 2508 ft | 209 kts | 44° |
| 2026-04-23 03:00 | 39.79342 | -84.43159 | 2522 ft | 219 kts | 46° |
| 2026-04-23 03:00 | 39.80298 | -84.41625 | 2641 ft | 218 kts | 52° |
| 2026-04-23 03:00 | 39.81227 | -84.40033 | 2694 ft | 221 kts | 52° |
| 2026-04-23 03:00 | 39.82051 | -84.38495 | 2839 ft | 198 kts | 57° |
| 2026-04-23 03:01 | 39.82806 | -84.37042 | 2634 ft | 191 kts | 53° |
| 2026-04-23 03:01 | 39.83581 | -84.35673 | 2486 ft | 184 kts | 53° |
| 2026-04-23 03:01 | 39.84285 | -84.34314 | 2281 ft | 178 kts | 56° |
| 2026-04-23 03:01 | 39.84983 | -84.33011 | 2066 ft | 174 kts | 53° |
| 2026-04-23 03:02 | 39.85714 | -84.31710 | 1996 ft | 181 kts | 54° |
| 2026-04-23 03:02 | 39.86437 | -84.30375 | 1959 ft | 176 kts | 57° |
| 2026-04-23 03:02 | 39.87084 | -84.29127 | 1948 ft | 156 kts | 55° |
| 2026-04-23 03:02 | 39.87687 | -84.28023 | 1759 ft | 148 kts | 56° |
| 2026-04-23 03:03 | 39.88270 | -84.26945 | 1502 ft | 143 kts | 55° |
| 2026-04-23 03:03 | 39.88822 | -84.25906 | 1283 ft | 136 kts | 57° |
| 2026-04-23 03:03 | 39.89371 | -84.24871 | 1087 ft | 141 kts | 58° |
| 2026-04-23 03:03 | 39.89906 | -84.23866 | 1008 ft | 123 kts | 57° |
| 2026-04-23 03:04 | 39.90328 | -84.23076 | 1005 ft | 85 kts | 55° |
| 2026-04-23 03:04 | 39.90577 | -84.22597 | 1008 ft | 46 kts | 55° |
| 2026-04-23 03:04 | 39.90725 | -84.22322 | 1009 ft | 33 kts | 55° |
| 2026-04-23 03:04 | 39.90853 | -84.22084 | 1007 ft | 32 kts | 55° |
| 2026-04-23 03:05 | 39.90961 | -84.21881 | 1005 ft | 20 kts | 55° |
| 2026-04-23 03:05 | 39.90930 | -84.21776 | 1005 ft | 15 kts | 143° |
| 2026-04-23 03:05 | 39.90849 | -84.21811 | 1005 ft | 17 kts | 234° |
| 2026-04-23 03:05 | 39.90772 | -84.21954 | 1006 ft | 19 kts | 234° |
| 2026-04-23 03:06 | 39.90700 | -84.22086 | 1006 ft | 17 kts | 236° |
| 2026-04-23 03:06 | 39.90632 | -84.22216 | 1006 ft | 17 kts | 236° |
| 2026-04-23 03:06 | 39.90574 | -84.22311 | 1006 ft | 5 kts | 202° |
| 2026-04-23 03:06 | 39.90558 | -84.22303 | 1006 ft | 6 kts | 148° |
| 2026-04-23 03:07 | 39.90498 | -84.22252 | 1006 ft | 15 kts | 146° |
| 2026-04-23 03:07 | 39.90403 | -84.22169 | 1006 ft | 15 kts | 146° |
| 2026-04-23 03:07 | 39.90324 | -84.22099 | 1006 ft | 12 kts | 144° |
| 2026-04-23 03:07 | 39.90262 | -84.22043 | 1006 ft | 9 kts | 144° |
| 2026-04-23 03:08 | 39.90215 | -84.21982 | 1006 ft | 12 kts | 112° |
| 2026-04-23 03:08 | 39.90218 | -84.21880 | 1006 ft | 9 kts | 84° |
| 2026-04-23 03:08 | 39.90213 | -84.21860 | 1006 ft | 1 kts | 150° |
| 2026-04-23 03:08 | 39.90206 | -84.21862 | 1006 ft | 2 kts | 200° |
| 2026-04-23 03:09 | 39.90176 | -84.21879 | 1006 ft | 5 kts | 200° |
| 2026-04-23 03:09 | 39.90158 | -84.21887 | 1006 ft | 0 kts | 200° |